sensor_id;sensor_type;location;lat;lon;timestamp;P1;durP1;ratioP1;P2;durP2;ratioP2
41572;SDS011;27286;47.870;19.006;2022-12-29T00:01:34;32.35;;;16.40;;
41572;SDS011;27286;47.870;19.006;2022-12-29T00:04:01;24.02;;;13.18;;
41572;SDS011;27286;47.870;19.006;2022-12-29T00:06:26;31.33;;;15.82;;
41572;SDS011;27286;47.870;19.006;2022-12-29T00:08:52;22.33;;;11.32;;
41572;SDS011;27286;47.870;19.006;2022-12-29T00:11:19;19.50;;;8.98;;
41572;SDS011;27286;47.870;19.006;2022-12-29T00:13:46;15.90;;;8.55;;
41572;SDS011;27286;47.870;19.006;2022-12-29T00:16:31;17.00;;;9.75;;
41572;SDS011;27286;47.870;19.006;2022-12-29T00:18:57;18.60;;;8.30;;
41572;SDS011;27286;47.870;19.006;2022-12-29T00:21:23;17.05;;;8.10;;
41572;SDS011;27286;47.870;19.006;2022-12-29T00:24:15;15.95;;;7.85;;
41572;SDS011;27286;47.870;19.006;2022-12-29T00:29:47;15.15;;;7.43;;
41572;SDS011;27286;47.870;19.006;2022-12-29T00:32:34;17.75;;;9.02;;
41572;SDS011;27286;47.870;19.006;2022-12-29T00:38:05;24.33;;;12.52;;
41572;SDS011;27286;47.870;19.006;2022-12-29T00:40:51;18.45;;;9.98;;
41572;SDS011;27286;47.870;19.006;2022-12-29T00:43:35;17.58;;;8.63;;
41572;SDS011;27286;47.870;19.006;2022-12-29T00:46:19;16.30;;;9.38;;
41572;SDS011;27286;47.870;19.006;2022-12-29T00:48:45;17.55;;;9.20;;
41572;SDS011;27286;47.870;19.006;2022-12-29T00:51:29;17.10;;;8.45;;
41572;SDS011;27286;47.870;19.006;2022-12-29T00:53:54;18.45;;;8.30;;
41572;SDS011;27286;47.870;19.006;2022-12-29T00:56:20;17.33;;;9.77;;
41572;SDS011;27286;47.870;19.006;2022-12-29T00:58:45;18.98;;;9.90;;
41572;SDS011;27286;47.870;19.006;2022-12-29T01:01:11;17.17;;;8.07;;
41572;SDS011;27286;47.870;19.006;2022-12-29T01:03:36;13.63;;;8.55;;
41572;SDS011;27286;47.870;19.006;2022-12-29T01:06:03;33.55;;;15.85;;
41572;SDS011;27286;47.870;19.006;2022-12-29T01:08:31;24.17;;;12.05;;
41572;SDS011;27286;47.870;19.006;2022-12-29T01:11:03;15.48;;;10.35;;
41572;SDS011;27286;47.870;19.006;2022-12-29T01:13:30;19.20;;;9.73;;
41572;SDS011;27286;47.870;19.006;2022-12-29T01:15:56;17.42;;;8.75;;
41572;SDS011;27286;47.870;19.006;2022-12-29T01:18:22;18.88;;;10.15;;
41572;SDS011;27286;47.870;19.006;2022-12-29T01:20:49;15.50;;;9.18;;
41572;SDS011;27286;47.870;19.006;2022-12-29T01:23:14;16.45;;;8.98;;
41572;SDS011;27286;47.870;19.006;2022-12-29T01:25:40;19.20;;;9.13;;
41572;SDS011;27286;47.870;19.006;2022-12-29T01:28:05;15.60;;;8.75;;
41572;SDS011;27286;47.870;19.006;2022-12-29T01:30:33;18.55;;;9.55;;
41572;SDS011;27286;47.870;19.006;2022-12-29T01:32:59;15.73;;;9.35;;
41572;SDS011;27286;47.870;19.006;2022-12-29T01:35:25;16.33;;;9.02;;
41572;SDS011;27286;47.870;19.006;2022-12-29T01:37:50;17.60;;;9.48;;
41572;SDS011;27286;47.870;19.006;2022-12-29T01:40:15;18.98;;;9.52;;
41572;SDS011;27286;47.870;19.006;2022-12-29T01:42:41;16.48;;;9.82;;
41572;SDS011;27286;47.870;19.006;2022-12-29T01:45:11;15.40;;;8.70;;
41572;SDS011;27286;47.870;19.006;2022-12-29T01:47:54;18.48;;;9.70;;
41572;SDS011;27286;47.870;19.006;2022-12-29T01:50:40;14.25;;;9.10;;
41572;SDS011;27286;47.870;19.006;2022-12-29T01:53:11;17.98;;;8.45;;
41572;SDS011;27286;47.870;19.006;2022-12-29T01:55:48;16.42;;;8.55;;
41572;SDS011;27286;47.870;19.006;2022-12-29T01:58:18;15.50;;;9.68;;
41572;SDS011;27286;47.870;19.006;2022-12-29T02:00:46;17.23;;;10.57;;
41572;SDS011;27286;47.870;19.006;2022-12-29T02:03:11;16.10;;;8.85;;
41572;SDS011;27286;47.870;19.006;2022-12-29T02:05:42;16.17;;;8.68;;
41572;SDS011;27286;47.870;19.006;2022-12-29T02:08:15;22.48;;;10.25;;
41572;SDS011;27286;47.870;19.006;2022-12-29T02:10:40;19.85;;;9.43;;
41572;SDS011;27286;47.870;19.006;2022-12-29T02:13:08;15.68;;;9.60;;
41572;SDS011;27286;47.870;19.006;2022-12-29T02:15:58;19.52;;;8.52;;
41572;SDS011;27286;47.870;19.006;2022-12-29T02:21:41;14.60;;;9.18;;
41572;SDS011;27286;47.870;19.006;2022-12-29T02:38:59;18.85;;;10.15;;
41572;SDS011;27286;47.870;19.006;2022-12-29T02:41:37;17.45;;;9.82;;
41572;SDS011;27286;47.870;19.006;2022-12-29T02:50:06;16.67;;;8.60;;
41572;SDS011;27286;47.870;19.006;2022-12-29T02:52:50;16.13;;;9.45;;
41572;SDS011;27286;47.870;19.006;2022-12-29T02:55:19;14.50;;;9.15;;
41572;SDS011;27286;47.870;19.006;2022-12-29T02:57:45;17.40;;;9.40;;
41572;SDS011;27286;47.870;19.006;2022-12-29T03:00:11;18.75;;;7.93;;
41572;SDS011;27286;47.870;19.006;2022-12-29T03:08:09;18.00;;;9.50;;
41572;SDS011;27286;47.870;19.006;2022-12-29T03:10:50;17.65;;;9.85;;
41572;SDS011;27286;47.870;19.006;2022-12-29T03:16:06;15.77;;;10.20;;
41572;SDS011;27286;47.870;19.006;2022-12-29T03:21:42;21.05;;;9.55;;
41572;SDS011;27286;47.870;19.006;2022-12-29T03:24:42;19.30;;;9.07;;
41572;SDS011;27286;47.870;19.006;2022-12-29T03:27:13;16.23;;;9.13;;
41572;SDS011;27286;47.870;19.006;2022-12-29T03:29:43;17.60;;;9.23;;
41572;SDS011;27286;47.870;19.006;2022-12-29T03:32:12;16.70;;;9.35;;
41572;SDS011;27286;47.870;19.006;2022-12-29T03:34:39;18.50;;;10.20;;
41572;SDS011;27286;47.870;19.006;2022-12-29T03:37:07;15.38;;;9.45;;
41572;SDS011;27286;47.870;19.006;2022-12-29T03:39:40;16.63;;;10.15;;
41572;SDS011;27286;47.870;19.006;2022-12-29T03:42:09;17.83;;;10.95;;
41572;SDS011;27286;47.870;19.006;2022-12-29T03:44:39;16.92;;;10.70;;
41572;SDS011;27286;47.870;19.006;2022-12-29T03:47:06;20.63;;;11.70;;
41572;SDS011;27286;47.870;19.006;2022-12-29T03:49:32;19.02;;;11.80;;
41572;SDS011;27286;47.870;19.006;2022-12-29T03:51:58;17.60;;;10.75;;
41572;SDS011;27286;47.870;19.006;2022-12-29T03:54:23;20.23;;;12.02;;
41572;SDS011;27286;47.870;19.006;2022-12-29T03:56:49;20.95;;;11.27;;
41572;SDS011;27286;47.870;19.006;2022-12-29T03:59:15;22.17;;;10.48;;
41572;SDS011;27286;47.870;19.006;2022-12-29T04:01:40;21.02;;;11.45;;
41572;SDS011;27286;47.870;19.006;2022-12-29T04:04:06;20.27;;;11.95;;
41572;SDS011;27286;47.870;19.006;2022-12-29T04:06:31;18.67;;;10.90;;
41572;SDS011;27286;47.870;19.006;2022-12-29T04:08:57;19.58;;;11.88;;
41572;SDS011;27286;47.870;19.006;2022-12-29T04:11:22;26.45;;;11.70;;
41572;SDS011;27286;47.870;19.006;2022-12-29T04:13:48;22.42;;;12.85;;
41572;SDS011;27286;47.870;19.006;2022-12-29T04:16:13;20.23;;;11.35;;
41572;SDS011;27286;47.870;19.006;2022-12-29T04:18:39;18.88;;;10.95;;
41572;SDS011;27286;47.870;19.006;2022-12-29T04:21:04;17.38;;;9.98;;
41572;SDS011;27286;47.870;19.006;2022-12-29T04:23:31;20.85;;;10.68;;
41572;SDS011;27286;47.870;19.006;2022-12-29T04:25:58;20.77;;;11.55;;
41572;SDS011;27286;47.870;19.006;2022-12-29T04:28:24;21.85;;;12.05;;
41572;SDS011;27286;47.870;19.006;2022-12-29T04:30:49;19.55;;;12.40;;
41572;SDS011;27286;47.870;19.006;2022-12-29T04:33:15;21.73;;;13.10;;
41572;SDS011;27286;47.870;19.006;2022-12-29T04:35:41;22.52;;;12.07;;
41572;SDS011;27286;47.870;19.006;2022-12-29T04:38:08;26.55;;;11.38;;
41572;SDS011;27286;47.870;19.006;2022-12-29T04:40:33;21.83;;;13.23;;
41572;SDS011;27286;47.870;19.006;2022-12-29T04:42:59;25.30;;;12.32;;
41572;SDS011;27286;47.870;19.006;2022-12-29T04:45:24;19.67;;;12.13;;
41572;SDS011;27286;47.870;19.006;2022-12-29T04:47:50;19.50;;;11.80;;
41572;SDS011;27286;47.870;19.006;2022-12-29T04:50:15;17.60;;;11.70;;
41572;SDS011;27286;47.870;19.006;2022-12-29T04:52:40;21.27;;;11.90;;
41572;SDS011;27286;47.870;19.006;2022-12-29T04:55:06;20.50;;;12.77;;
41572;SDS011;27286;47.870;19.006;2022-12-29T04:57:32;23.67;;;13.57;;
41572;SDS011;27286;47.870;19.006;2022-12-29T04:59:58;22.02;;;14.30;;
41572;SDS011;27286;47.870;19.006;2022-12-29T05:02:23;22.48;;;13.38;;
41572;SDS011;27286;47.870;19.006;2022-12-29T05:04:49;21.88;;;13.18;;
41572;SDS011;27286;47.870;19.006;2022-12-29T05:07:14;23.15;;;12.60;;
41572;SDS011;27286;47.870;19.006;2022-12-29T05:09:40;19.08;;;12.13;;
41572;SDS011;27286;47.870;19.006;2022-12-29T05:12:05;19.77;;;12.73;;
41572;SDS011;27286;47.870;19.006;2022-12-29T05:14:31;23.92;;;13.32;;
41572;SDS011;27286;47.870;19.006;2022-12-29T05:16:57;20.83;;;11.90;;
41572;SDS011;27286;47.870;19.006;2022-12-29T05:19:22;24.05;;;12.57;;
41572;SDS011;27286;47.870;19.006;2022-12-29T05:21:48;21.90;;;14.18;;
41572;SDS011;27286;47.870;19.006;2022-12-29T05:24:13;21.90;;;12.52;;
41572;SDS011;27286;47.870;19.006;2022-12-29T05:26:40;22.63;;;13.32;;
41572;SDS011;27286;47.870;19.006;2022-12-29T05:29:05;21.17;;;12.80;;
41572;SDS011;27286;47.870;19.006;2022-12-29T05:31:31;19.08;;;11.98;;
41572;SDS011;27286;47.870;19.006;2022-12-29T05:33:56;18.45;;;12.15;;
41572;SDS011;27286;47.870;19.006;2022-12-29T05:36:21;22.75;;;12.98;;
41572;SDS011;27286;47.870;19.006;2022-12-29T05:38:47;22.83;;;13.40;;
41572;SDS011;27286;47.870;19.006;2022-12-29T05:41:12;21.10;;;13.23;;
41572;SDS011;27286;47.870;19.006;2022-12-29T05:43:38;24.27;;;12.25;;
41572;SDS011;27286;47.870;19.006;2022-12-29T05:46:03;23.33;;;12.20;;
41572;SDS011;27286;47.870;19.006;2022-12-29T05:48:29;20.30;;;11.80;;
41572;SDS011;27286;47.870;19.006;2022-12-29T05:50:54;22.23;;;13.27;;
41572;SDS011;27286;47.870;19.006;2022-12-29T05:53:20;20.25;;;11.93;;
41572;SDS011;27286;47.870;19.006;2022-12-29T05:55:46;24.00;;;12.85;;
41572;SDS011;27286;47.870;19.006;2022-12-29T05:58:12;20.33;;;12.48;;
41572;SDS011;27286;47.870;19.006;2022-12-29T06:00:38;18.13;;;11.60;;
41572;SDS011;27286;47.870;19.006;2022-12-29T06:03:04;21.55;;;12.35;;
41572;SDS011;27286;47.870;19.006;2022-12-29T06:05:29;21.27;;;11.82;;
41572;SDS011;27286;47.870;19.006;2022-12-29T06:07:55;21.65;;;12.80;;
41572;SDS011;27286;47.870;19.006;2022-12-29T06:10:20;21.25;;;12.00;;
41572;SDS011;27286;47.870;19.006;2022-12-29T06:12:46;17.48;;;11.68;;
41572;SDS011;27286;47.870;19.006;2022-12-29T06:15:12;25.73;;;14.10;;
41572;SDS011;27286;47.870;19.006;2022-12-29T06:17:37;21.15;;;13.40;;
41572;SDS011;27286;47.870;19.006;2022-12-29T06:20:03;32.33;;;20.88;;
41572;SDS011;27286;47.870;19.006;2022-12-29T06:22:29;27.65;;;17.90;;
41572;SDS011;27286;47.870;19.006;2022-12-29T06:24:54;26.17;;;15.70;;
41572;SDS011;27286;47.870;19.006;2022-12-29T06:27:20;22.77;;;14.50;;
41572;SDS011;27286;47.870;19.006;2022-12-29T06:29:45;25.25;;;14.63;;
41572;SDS011;27286;47.870;19.006;2022-12-29T06:32:11;20.83;;;12.95;;
41572;SDS011;27286;47.870;19.006;2022-12-29T06:34:36;20.52;;;12.77;;
41572;SDS011;27286;47.870;19.006;2022-12-29T06:37:02;21.05;;;12.80;;
41572;SDS011;27286;47.870;19.006;2022-12-29T06:39:27;20.58;;;12.13;;
41572;SDS011;27286;47.870;19.006;2022-12-29T06:41:53;21.05;;;12.00;;
41572;SDS011;27286;47.870;19.006;2022-12-29T06:44:22;33.40;;;19.25;;
41572;SDS011;27286;47.870;19.006;2022-12-29T06:46:48;55.65;;;30.63;;
41572;SDS011;27286;47.870;19.006;2022-12-29T06:49:14;39.45;;;23.45;;
41572;SDS011;27286;47.870;19.006;2022-12-29T06:51:39;34.22;;;20.95;;
41572;SDS011;27286;47.870;19.006;2022-12-29T06:54:05;37.28;;;21.02;;
41572;SDS011;27286;47.870;19.006;2022-12-29T06:56:30;39.33;;;19.70;;
41572;SDS011;27286;47.870;19.006;2022-12-29T06:58:57;27.58;;;15.98;;
41572;SDS011;27286;47.870;19.006;2022-12-29T07:01:25;31.02;;;15.57;;
41572;SDS011;27286;47.870;19.006;2022-12-29T07:03:51;22.60;;;13.80;;
41572;SDS011;27286;47.870;19.006;2022-12-29T07:06:16;22.02;;;13.75;;
41572;SDS011;27286;47.870;19.006;2022-12-29T07:08:41;21.30;;;12.30;;
41572;SDS011;27286;47.870;19.006;2022-12-29T07:11:07;26.00;;;16.02;;
41572;SDS011;27286;47.870;19.006;2022-12-29T07:13:33;50.60;;;29.45;;
41572;SDS011;27286;47.870;19.006;2022-12-29T07:15:59;89.43;;;48.38;;
41572;SDS011;27286;47.870;19.006;2022-12-29T07:18:24;92.57;;;54.85;;
41572;SDS011;27286;47.870;19.006;2022-12-29T07:20:49;148.05;;;78.10;;
41572;SDS011;27286;47.870;19.006;2022-12-29T07:23:15;117.07;;;64.57;;
41572;SDS011;27286;47.870;19.006;2022-12-29T07:25:40;109.78;;;63.70;;
41572;SDS011;27286;47.870;19.006;2022-12-29T07:28:06;87.97;;;49.78;;
41572;SDS011;27286;47.870;19.006;2022-12-29T07:30:32;149.23;;;82.22;;
41572;SDS011;27286;47.870;19.006;2022-12-29T07:32:57;123.43;;;69.00;;
41572;SDS011;27286;47.870;19.006;2022-12-29T07:35:23;77.80;;;44.28;;
41572;SDS011;27286;47.870;19.006;2022-12-29T07:37:48;52.90;;;30.80;;
41572;SDS011;27286;47.870;19.006;2022-12-29T07:40:14;60.20;;;35.40;;
41572;SDS011;27286;47.870;19.006;2022-12-29T07:42:39;78.10;;;37.58;;
41572;SDS011;27286;47.870;19.006;2022-12-29T07:45:05;46.40;;;27.45;;
41572;SDS011;27286;47.870;19.006;2022-12-29T07:47:31;35.75;;;21.67;;
41572;SDS011;27286;47.870;19.006;2022-12-29T07:49:56;26.00;;;16.70;;
41572;SDS011;27286;47.870;19.006;2022-12-29T07:52:22;24.92;;;15.88;;
41572;SDS011;27286;47.870;19.006;2022-12-29T07:54:47;25.50;;;16.63;;
41572;SDS011;27286;47.870;19.006;2022-12-29T07:57:13;24.85;;;16.75;;
41572;SDS011;27286;47.870;19.006;2022-12-29T07:59:38;26.70;;;16.55;;
41572;SDS011;27286;47.870;19.006;2022-12-29T08:02:03;48.15;;;24.42;;
41572;SDS011;27286;47.870;19.006;2022-12-29T08:04:29;53.92;;;32.72;;
41572;SDS011;27286;47.870;19.006;2022-12-29T08:06:54;43.42;;;26.52;;
41572;SDS011;27286;47.870;19.006;2022-12-29T08:09:20;28.85;;;19.08;;
41572;SDS011;27286;47.870;19.006;2022-12-29T08:11:45;28.55;;;18.25;;
41572;SDS011;27286;47.870;19.006;2022-12-29T08:14:11;44.95;;;27.55;;
41572;SDS011;27286;47.870;19.006;2022-12-29T08:16:36;28.25;;;19.63;;
41572;SDS011;27286;47.870;19.006;2022-12-29T08:19:02;26.67;;;17.50;;
41572;SDS011;27286;47.870;19.006;2022-12-29T08:21:28;27.52;;;17.48;;
41572;SDS011;27286;47.870;19.006;2022-12-29T08:23:54;29.30;;;17.63;;
41572;SDS011;27286;47.870;19.006;2022-12-29T08:26:19;27.38;;;18.05;;
41572;SDS011;27286;47.870;19.006;2022-12-29T08:28:45;23.05;;;16.60;;
41572;SDS011;27286;47.870;19.006;2022-12-29T08:31:10;30.33;;;17.83;;
41572;SDS011;27286;47.870;19.006;2022-12-29T08:33:36;25.73;;;17.60;;
41572;SDS011;27286;47.870;19.006;2022-12-29T08:36:02;28.65;;;18.77;;
41572;SDS011;27286;47.870;19.006;2022-12-29T08:38:28;26.85;;;18.17;;
41572;SDS011;27286;47.870;19.006;2022-12-29T08:40:55;29.95;;;17.95;;
41572;SDS011;27286;47.870;19.006;2022-12-29T08:43:21;23.80;;;17.23;;
41572;SDS011;27286;47.870;19.006;2022-12-29T08:45:46;26.20;;;17.02;;
41572;SDS011;27286;47.870;19.006;2022-12-29T08:48:12;21.45;;;16.15;;
41572;SDS011;27286;47.870;19.006;2022-12-29T08:50:37;25.35;;;16.95;;
41572;SDS011;27286;47.870;19.006;2022-12-29T08:53:03;24.88;;;17.52;;
41572;SDS011;27286;47.870;19.006;2022-12-29T08:55:28;28.88;;;18.65;;
41572;SDS011;27286;47.870;19.006;2022-12-29T08:57:53;22.40;;;16.88;;
41572;SDS011;27286;47.870;19.006;2022-12-29T09:00:19;23.70;;;17.85;;
41572;SDS011;27286;47.870;19.006;2022-12-29T09:02:45;22.92;;;16.13;;
41572;SDS011;27286;47.870;19.006;2022-12-29T09:05:11;21.67;;;15.73;;
41572;SDS011;27286;47.870;19.006;2022-12-29T09:07:37;20.60;;;14.95;;
41572;SDS011;27286;47.870;19.006;2022-12-29T09:10:03;19.70;;;15.38;;
41572;SDS011;27286;47.870;19.006;2022-12-29T09:12:29;25.20;;;14.70;;
41572;SDS011;27286;47.870;19.006;2022-12-29T09:14:54;20.40;;;14.18;;
41572;SDS011;27286;47.870;19.006;2022-12-29T09:17:19;23.48;;;14.00;;
41572;SDS011;27286;47.870;19.006;2022-12-29T09:20:04;21.70;;;14.57;;
41572;SDS011;27286;47.870;19.006;2022-12-29T09:22:29;22.30;;;14.68;;
41572;SDS011;27286;47.870;19.006;2022-12-29T09:24:55;19.58;;;13.73;;
41572;SDS011;27286;47.870;19.006;2022-12-29T09:27:20;26.73;;;13.93;;
41572;SDS011;27286;47.870;19.006;2022-12-29T09:29:46;19.05;;;13.93;;
41572;SDS011;27286;47.870;19.006;2022-12-29T09:32:11;21.73;;;15.35;;
41572;SDS011;27286;47.870;19.006;2022-12-29T09:34:37;16.48;;;14.52;;
41572;SDS011;27286;47.870;19.006;2022-12-29T09:37:02;18.45;;;14.05;;
41572;SDS011;27286;47.870;19.006;2022-12-29T09:39:27;18.73;;;15.68;;
41572;SDS011;27286;47.870;19.006;2022-12-29T09:41:59;19.83;;;15.77;;
41572;SDS011;27286;47.870;19.006;2022-12-29T09:47:02;18.08;;;14.35;;
41572;SDS011;27286;47.870;19.006;2022-12-29T09:49:30;20.60;;;15.63;;
41572;SDS011;27286;47.870;19.006;2022-12-29T09:52:13;21.90;;;15.10;;
41572;SDS011;27286;47.870;19.006;2022-12-29T09:57:28;20.13;;;14.85;;
41572;SDS011;27286;47.870;19.006;2022-12-29T10:00:22;21.02;;;15.25;;
41572;SDS011;27286;47.870;19.006;2022-12-29T10:02:58;20.67;;;16.05;;
41572;SDS011;27286;47.870;19.006;2022-12-29T10:08:17;17.45;;;13.75;;
41572;SDS011;27286;47.870;19.006;2022-12-29T10:10:58;17.90;;;15.25;;
41572;SDS011;27286;47.870;19.006;2022-12-29T10:16:09;18.45;;;14.07;;
41572;SDS011;27286;47.870;19.006;2022-12-29T10:24:20;16.57;;;13.97;;
41572;SDS011;27286;47.870;19.006;2022-12-29T10:26:47;16.45;;;14.27;;
41572;SDS011;27286;47.870;19.006;2022-12-29T10:29:20;17.10;;;14.18;;
41572;SDS011;27286;47.870;19.006;2022-12-29T10:36:58;18.48;;;14.82;;
41572;SDS011;27286;47.870;19.006;2022-12-29T10:42:11;16.20;;;13.60;;
41572;SDS011;27286;47.870;19.006;2022-12-29T10:44:56;19.50;;;13.93;;
41572;SDS011;27286;47.870;19.006;2022-12-29T10:47:28;17.95;;;13.93;;
41572;SDS011;27286;47.870;19.006;2022-12-29T10:49:59;18.45;;;13.13;;
41572;SDS011;27286;47.870;19.006;2022-12-29T10:52:26;17.88;;;14.02;;
41572;SDS011;27286;47.870;19.006;2022-12-29T10:54:55;17.02;;;13.98;;
41572;SDS011;27286;47.870;19.006;2022-12-29T10:57:36;18.23;;;13.38;;
41572;SDS011;27286;47.870;19.006;2022-12-29T11:00:27;15.18;;;12.13;;
41572;SDS011;27286;47.870;19.006;2022-12-29T11:06:09;14.02;;;12.07;;
41572;SDS011;27286;47.870;19.006;2022-12-29T11:08:41;14.70;;;12.60;;
41572;SDS011;27286;47.870;19.006;2022-12-29T11:11:21;19.70;;;13.73;;
41572;SDS011;27286;47.870;19.006;2022-12-29T11:14:02;15.38;;;13.30;;
41572;SDS011;27286;47.870;19.006;2022-12-29T11:16:37;16.15;;;13.60;;
41572;SDS011;27286;47.870;19.006;2022-12-29T11:19:03;17.90;;;13.20;;
41572;SDS011;27286;47.870;19.006;2022-12-29T11:21:35;15.73;;;12.77;;
41572;SDS011;27286;47.870;19.006;2022-12-29T11:24:26;15.68;;;12.70;;
41572;SDS011;27286;47.870;19.006;2022-12-29T11:26:54;14.73;;;13.10;;
41572;SDS011;27286;47.870;19.006;2022-12-29T11:31:51;16.25;;;13.10;;
41572;SDS011;27286;47.870;19.006;2022-12-29T11:34:32;16.63;;;12.68;;
41572;SDS011;27286;47.870;19.006;2022-12-29T11:37:10;16.42;;;13.38;;
41572;SDS011;27286;47.870;19.006;2022-12-29T11:39:37;15.45;;;13.82;;
41572;SDS011;27286;47.870;19.006;2022-12-29T11:42:12;16.85;;;12.85;;
41572;SDS011;27286;47.870;19.006;2022-12-29T11:44:45;15.45;;;13.15;;
41572;SDS011;27286;47.870;19.006;2022-12-29T11:47:19;15.45;;;13.18;;
41572;SDS011;27286;47.870;19.006;2022-12-29T11:50:00;16.85;;;13.43;;
41572;SDS011;27286;47.870;19.006;2022-12-29T11:52:29;18.05;;;14.40;;
41572;SDS011;27286;47.870;19.006;2022-12-29T11:54:58;17.10;;;13.93;;
41572;SDS011;27286;47.870;19.006;2022-12-29T11:57:26;16.45;;;13.63;;
41572;SDS011;27286;47.870;19.006;2022-12-29T11:59:53;20.40;;;13.63;;
41572;SDS011;27286;47.870;19.006;2022-12-29T12:07:49;24.60;;;19.58;;
41572;SDS011;27286;47.870;19.006;2022-12-29T12:10:54;20.30;;;16.73;;
41572;SDS011;27286;47.870;19.006;2022-12-29T12:16:07;19.38;;;17.25;;
41572;SDS011;27286;47.870;19.006;2022-12-29T12:18:39;25.73;;;15.13;;
41572;SDS011;27286;47.870;19.006;2022-12-29T12:21:34;22.92;;;16.65;;
41572;SDS011;27286;47.870;19.006;2022-12-29T12:26:39;21.77;;;16.00;;
41572;SDS011;27286;47.870;19.006;2022-12-29T12:29:25;22.27;;;17.27;;
41572;SDS011;27286;47.870;19.006;2022-12-29T12:32:01;19.77;;;17.35;;
41572;SDS011;27286;47.870;19.006;2022-12-29T12:34:40;22.40;;;15.63;;
41572;SDS011;27286;47.870;19.006;2022-12-29T12:40:06;22.85;;;15.68;;
41572;SDS011;27286;47.870;19.006;2022-12-29T12:59:56;28.17;;;19.55;;
41572;SDS011;27286;47.870;19.006;2022-12-29T13:05:24;23.75;;;17.77;;
41572;SDS011;27286;47.870;19.006;2022-12-29T13:08:19;21.77;;;17.67;;
41572;SDS011;27286;47.870;19.006;2022-12-29T13:11:01;20.50;;;16.33;;
41572;SDS011;27286;47.870;19.006;2022-12-29T13:18:54;25.33;;;20.38;;
41572;SDS011;27286;47.870;19.006;2022-12-29T13:26:44;26.27;;;19.05;;
41572;SDS011;27286;47.870;19.006;2022-12-29T13:40:43;28.70;;;20.95;;
41572;SDS011;27286;47.870;19.006;2022-12-29T13:43:13;28.45;;;19.10;;
41572;SDS011;27286;47.870;19.006;2022-12-29T13:45:41;27.17;;;18.75;;
41572;SDS011;27286;47.870;19.006;2022-12-29T13:50:38;27.55;;;20.02;;
41572;SDS011;27286;47.870;19.006;2022-12-29T14:06:28;45.35;;;31.95;;
41572;SDS011;27286;47.870;19.006;2022-12-29T14:09:03;41.53;;;29.48;;
41572;SDS011;27286;47.870;19.006;2022-12-29T14:11:38;35.60;;;23.88;;
41572;SDS011;27286;47.870;19.006;2022-12-29T14:14:18;50.15;;;31.95;;
41572;SDS011;27286;47.870;19.006;2022-12-29T14:16:51;51.15;;;36.17;;
41572;SDS011;27286;47.870;19.006;2022-12-29T14:21:50;82.28;;;45.10;;
41572;SDS011;27286;47.870;19.006;2022-12-29T14:26:59;46.05;;;30.83;;
41572;SDS011;27286;47.870;19.006;2022-12-29T14:31:54;36.78;;;23.38;;
41572;SDS011;27286;47.870;19.006;2022-12-29T14:44:52;51.70;;;35.13;;
41572;SDS011;27286;47.870;19.006;2022-12-29T14:49:51;93.35;;;60.88;;
41572;SDS011;27286;47.870;19.006;2022-12-29T14:54:54;60.75;;;44.17;;
41572;SDS011;27286;47.870;19.006;2022-12-29T14:57:26;56.35;;;39.63;;
41572;SDS011;27286;47.870;19.006;2022-12-29T15:00:01;46.65;;;31.90;;
41572;SDS011;27286;47.870;19.006;2022-12-29T15:02:40;44.92;;;30.33;;
41572;SDS011;27286;47.870;19.006;2022-12-29T15:08:05;54.25;;;34.92;;
41572;SDS011;27286;47.870;19.006;2022-12-29T15:10:34;48.53;;;34.38;;
41572;SDS011;27286;47.870;19.006;2022-12-29T15:13:05;50.08;;;35.33;;
41572;SDS011;27286;47.870;19.006;2022-12-29T15:20:46;52.80;;;34.50;;
41572;SDS011;27286;47.870;19.006;2022-12-29T15:23:17;54.58;;;36.58;;
41572;SDS011;27286;47.870;19.006;2022-12-29T15:25:49;55.67;;;37.88;;
41572;SDS011;27286;47.870;19.006;2022-12-29T15:28:19;52.20;;;36.13;;
41572;SDS011;27286;47.870;19.006;2022-12-29T15:30:50;49.35;;;33.58;;
41572;SDS011;27286;47.870;19.006;2022-12-29T15:33:27;43.83;;;30.35;;
41572;SDS011;27286;47.870;19.006;2022-12-29T15:35:53;42.97;;;29.33;;
41572;SDS011;27286;47.870;19.006;2022-12-29T15:38:22;47.70;;;32.47;;
41572;SDS011;27286;47.870;19.006;2022-12-29T15:41:00;50.38;;;34.08;;
41572;SDS011;27286;47.870;19.006;2022-12-29T15:43:33;47.33;;;32.67;;
41572;SDS011;27286;47.870;19.006;2022-12-29T15:46:01;45.33;;;29.73;;
41572;SDS011;27286;47.870;19.006;2022-12-29T15:48:27;60.60;;;39.30;;
41572;SDS011;27286;47.870;19.006;2022-12-29T15:50:53;42.15;;;28.90;;
41572;SDS011;27286;47.870;19.006;2022-12-29T15:53:23;37.28;;;25.58;;
41572;SDS011;27286;47.870;19.006;2022-12-29T15:55:54;38.45;;;26.95;;
41572;SDS011;27286;47.870;19.006;2022-12-29T15:58:24;35.70;;;21.13;;
41572;SDS011;27286;47.870;19.006;2022-12-29T16:00:55;34.95;;;18.77;;
41572;SDS011;27286;47.870;19.006;2022-12-29T16:03:25;26.52;;;17.08;;
41572;SDS011;27286;47.870;19.006;2022-12-29T16:05:56;27.25;;;17.58;;
41572;SDS011;27286;47.870;19.006;2022-12-29T16:08:35;25.70;;;18.45;;
41572;SDS011;27286;47.870;19.006;2022-12-29T16:11:05;33.83;;;18.33;;
41572;SDS011;27286;47.870;19.006;2022-12-29T16:13:47;26.77;;;17.17;;
41572;SDS011;27286;47.870;19.006;2022-12-29T16:16:16;29.80;;;17.02;;
41572;SDS011;27286;47.870;19.006;2022-12-29T16:18:45;30.92;;;18.42;;
41572;SDS011;27286;47.870;19.006;2022-12-29T16:21:21;23.58;;;16.73;;
41572;SDS011;27286;47.870;19.006;2022-12-29T16:23:52;25.67;;;17.63;;
41572;SDS011;27286;47.870;19.006;2022-12-29T16:26:20;27.73;;;16.65;;
41572;SDS011;27286;47.870;19.006;2022-12-29T16:28:50;23.63;;;16.45;;
41572;SDS011;27286;47.870;19.006;2022-12-29T16:31:23;32.17;;;17.38;;
41572;SDS011;27286;47.870;19.006;2022-12-29T16:33:54;24.40;;;16.65;;
41572;SDS011;27286;47.870;19.006;2022-12-29T16:36:33;27.98;;;16.98;;
41572;SDS011;27286;47.870;19.006;2022-12-29T16:41:52;26.15;;;17.30;;
41572;SDS011;27286;47.870;19.006;2022-12-29T16:44:23;30.35;;;18.50;;
41572;SDS011;27286;47.870;19.006;2022-12-29T16:49:34;29.63;;;18.42;;
41572;SDS011;27286;47.870;19.006;2022-12-29T16:52:11;29.95;;;18.58;;
41572;SDS011;27286;47.870;19.006;2022-12-29T16:57:20;30.60;;;19.02;;
41572;SDS011;27286;47.870;19.006;2022-12-29T16:59:50;29.30;;;19.40;;
41572;SDS011;27286;47.870;19.006;2022-12-29T17:02:19;28.05;;;18.67;;
41572;SDS011;27286;47.870;19.006;2022-12-29T17:04:46;28.88;;;17.95;;
41572;SDS011;27286;47.870;19.006;2022-12-29T17:07:18;25.33;;;18.10;;
41572;SDS011;27286;47.870;19.006;2022-12-29T17:09:53;30.95;;;19.50;;
41572;SDS011;27286;47.870;19.006;2022-12-29T17:12:22;31.08;;;18.40;;
41572;SDS011;27286;47.870;19.006;2022-12-29T17:14:52;28.13;;;17.23;;
41572;SDS011;27286;47.870;19.006;2022-12-29T17:17:35;26.42;;;17.08;;
41572;SDS011;27286;47.870;19.006;2022-12-29T17:20:05;26.23;;;17.90;;
41572;SDS011;27286;47.870;19.006;2022-12-29T17:22:38;24.27;;;17.08;;
41572;SDS011;27286;47.870;19.006;2022-12-29T17:25:04;28.23;;;17.65;;
41572;SDS011;27286;47.870;19.006;2022-12-29T17:27:31;24.77;;;17.17;;